createdAt,value
2018-05-16T00:00:43.139Z,25.93
2018-05-16T00:03:13.664Z,23.07
2018-05-16T00:05:50.586Z,24.93
2018-05-16T00:08:22.547Z,22.70
2018-05-16T00:10:53.150Z,24.30
2018-05-16T00:13:27.662Z,24.30
2018-05-16T00:15:57.425Z,23.10
2018-05-16T00:18:27.436Z,22.60
2018-05-16T00:20:58.901Z,23.73
2018-05-16T00:23:29.845Z,23.90
2018-05-16T00:25:59.436Z,26.40
2018-05-16T00:28:33.822Z,28.93
2018-05-16T00:31:04.531Z,28.83
2018-05-16T00:33:35.272Z,29.03
2018-05-16T00:36:09.526Z,26.30
2018-05-16T00:38:40.234Z,26.40
2018-05-16T00:41:16.882Z,28.93
2018-05-16T00:43:47.894Z,25.37
2018-05-16T00:46:20.957Z,24.13
2018-05-16T00:48:51.405Z,28.97
2018-05-16T00:51:34.721Z,28.63
2018-05-16T00:54:05.349Z,30.50
2018-05-16T00:56:37.003Z,32.57
2018-05-16T00:59:06.581Z,34.77
2018-05-16T01:01:39.092Z,37.07
2018-05-16T01:04:09.912Z,36.73
2018-05-16T01:06:42.234Z,35.77
2018-05-16T01:09:12.126Z,31.93
2018-05-16T01:11:52.901Z,29.60
2018-05-16T01:14:37.849Z,28.30
2018-05-16T01:17:11.751Z,31.17
2018-05-16T01:20:32.294Z,28.20
2018-05-16T01:23:02.601Z,23.37
2018-05-16T01:25:34.930Z,25.70
2018-05-16T01:28:04.433Z,22.80
2018-05-16T01:30:56.665Z,19.03
2018-05-16T01:33:26.667Z,20.90
2018-05-16T01:36:00.718Z,25.60
2018-05-16T01:38:50.561Z,28.43
2018-05-16T01:41:21.873Z,23.40
2018-05-16T01:44:02.150Z,32.17
2018-05-16T01:46:34.847Z,35.00
2018-05-16T01:49:22.073Z,32.80
2018-05-16T01:51:52.517Z,25.63
2018-05-16T01:54:22.910Z,19.20
2018-05-16T01:56:59.333Z,17.70
2018-05-16T01:59:32.692Z,23.97
2018-05-16T02:02:02.413Z,25.43
2018-05-16T02:04:32.911Z,27.10
2018-05-16T02:07:06.737Z,19.87
2018-05-16T02:09:36.934Z,15.20
2018-05-16T02:12:06.627Z,11.27
2018-05-16T02:14:36.114Z,10.13
2018-05-16T02:17:08.115Z,9.80
2018-05-16T02:19:37.623Z,10.73
2018-05-16T02:22:07.206Z,11.37
2018-05-16T02:24:38.131Z,11.10
2018-05-16T02:27:20.526Z,9.63
2018-05-16T02:29:50.909Z,9.50
2018-05-16T02:32:22.856Z,7.60
2018-05-16T02:34:54.834Z,9.20
2018-05-16T02:37:24.801Z,11.07
2018-05-16T02:39:56.896Z,13.40
2018-05-16T02:42:27.365Z,14.50
2018-05-16T02:48:19.835Z,17.83
2018-05-16T02:50:49.428Z,17.97
2018-05-16T02:53:21.698Z,19.73
2018-05-16T02:55:53.515Z,16.00
2018-05-16T02:58:23.182Z,10.00
2018-05-16T03:00:55.479Z,10.47
2018-05-16T03:03:25.892Z,12.97
2018-05-16T03:06:02.760Z,14.17
2018-05-16T03:08:32.459Z,16.97
2018-05-16T03:11:02.813Z,17.23
2018-05-16T03:14:02.725Z,15.00
2018-05-16T03:16:32.766Z,12.80
2018-05-16T03:19:02.414Z,14.03
2018-05-16T03:21:31.982Z,12.13
2018-05-16T03:24:26.672Z,13.13
2018-05-16T03:26:56.878Z,13.93
2018-05-16T03:29:26.315Z,15.33
2018-05-16T03:31:58.705Z,17.77
2018-05-16T03:34:28.329Z,19.00
2018-05-16T03:36:58.737Z,19.23
2018-05-16T03:39:28.264Z,21.33
2018-05-16T03:41:58.495Z,21.50
2018-05-16T03:44:28.820Z,18.83
2018-05-16T03:46:58.256Z,19.33
2018-05-16T03:49:27.661Z,21.13
2018-05-16T03:51:58.097Z,21.57
2018-05-16T03:54:27.538Z,14.73
2018-05-16T03:56:57.422Z,12.70
2018-05-16T03:59:38.004Z,15.60
2018-05-16T04:05:30.444Z,14.47
2018-05-16T04:07:59.789Z,14.90
2018-05-16T04:10:29.118Z,17.17
2018-05-16T04:12:58.551Z,20.33
2018-05-16T04:15:27.927Z,22.90
2018-05-16T04:17:57.285Z,29.77
2018-05-16T04:20:27.384Z,32.37
2018-05-16T04:22:57.470Z,28.67
2018-05-16T04:25:26.874Z,31.30
2018-05-16T04:27:57.143Z,29.77
2018-05-16T04:30:26.628Z,31.23
2018-05-16T04:32:55.953Z,27.73
2018-05-16T04:35:25.546Z,33.17
2018-05-16T04:37:54.835Z,39.50
2018-05-16T04:40:24.169Z,31.37
2018-05-16T04:42:53.453Z,27.87
2018-05-16T04:45:22.738Z,29.30
2018-05-16T04:47:52.050Z,31.67
2018-05-16T04:50:21.538Z,30.73
2018-05-16T04:52:50.791Z,32.50
2018-05-16T04:55:20.196Z,32.70
2018-05-16T04:57:49.439Z,34.20
2018-05-16T05:00:18.682Z,32.53
2018-05-16T05:02:48.776Z,33.90
2018-05-16T05:05:18.067Z,44.70
2018-05-16T05:07:47.344Z,37.50
2018-05-16T05:10:16.670Z,37.53
2018-05-16T05:12:45.916Z,37.23
2018-05-16T05:15:15.159Z,34.57
2018-05-16T05:17:44.512Z,35.67
2018-05-16T05:20:13.765Z,35.33
2018-05-16T05:22:43.071Z,36.10
2018-05-16T05:25:12.374Z,34.87
2018-05-16T05:27:41.708Z,34.67
2018-05-16T05:30:11.291Z,35.80
2018-05-16T05:32:40.573Z,37.17
2018-05-16T05:35:09.957Z,24.77
2018-05-16T05:37:40.161Z,23.40
2018-05-16T05:40:09.523Z,21.60
2018-05-16T05:42:39.038Z,21.63
2018-05-16T05:45:09.453Z,22.70
2018-05-16T05:47:38.708Z,34.27
2018-05-16T05:50:07.988Z,20.00
2018-05-16T05:52:37.378Z,17.57
2018-05-16T05:55:06.642Z,16.63
2018-05-16T05:57:35.876Z,11.33
2018-05-16T06:00:05.389Z,9.90
2018-05-16T06:02:34.653Z,7.83
2018-05-16T06:05:03.924Z,11.47
2018-05-16T06:07:33.999Z,15.77
2018-05-16T06:10:03.249Z,10.57
2018-05-16T06:12:32.497Z,10.93
2018-05-16T06:15:03.025Z,277.03
2018-05-16T06:17:33.072Z,12.60
2018-05-16T06:20:03.230Z,11.80
2018-05-16T06:22:32.529Z,13.53
2018-05-16T06:25:01.774Z,27.60
2018-05-16T06:27:31.855Z,15.80
2018-05-16T06:30:01.108Z,11.90
2018-05-16T06:32:30.348Z,12.73
2018-05-16T06:37:42.691Z,14.37
2018-05-16T06:40:12.076Z,17.87
2018-05-16T06:42:41.339Z,19.90
2018-05-16T06:45:17.328Z,25.40
2018-05-16T06:47:49.991Z,25.70
2018-05-16T06:50:19.616Z,27.83
2018-05-16T06:52:49.578Z,30.87
2018-05-16T06:58:40.082Z,35.50
2018-05-16T07:01:09.381Z,35.70
2018-05-16T07:03:38.597Z,40.67
2018-05-16T07:06:07.987Z,40.33
2018-05-16T07:08:37.198Z,45.40
2018-05-16T07:11:06.426Z,47.30
2018-05-16T07:13:35.779Z,40.57
2018-05-16T07:16:05.104Z,44.07
2018-05-16T07:18:34.335Z,45.67
2018-05-16T07:21:55.429Z,46.87
2018-05-16T07:24:24.809Z,47.07
2018-05-16T07:26:54.241Z,48.17
2018-05-16T07:29:23.560Z,49.13
2018-05-16T07:31:52.990Z,51.43
2018-05-16T07:34:22.353Z,46.90
2018-05-16T07:36:51.899Z,47.43
2018-05-16T07:39:21.293Z,47.40
2018-05-16T07:41:50.859Z,51.00
2018-05-16T07:44:20.163Z,52.23
2018-05-16T07:46:49.594Z,49.90
2018-05-16T07:49:19.059Z,48.03
2018-05-16T07:51:48.554Z,48.47
2018-05-16T07:54:18.222Z,48.77
2018-05-16T07:56:47.532Z,48.37
2018-05-16T07:59:16.932Z,47.53
2018-05-16T08:01:46.285Z,49.80
2018-05-16T08:04:15.682Z,49.20
2018-05-16T08:06:45.090Z,50.10
2018-05-16T08:09:14.482Z,55.33
2018-05-16T08:11:43.950Z,60.03
2018-05-16T08:14:14.921Z,60.20
2018-05-16T08:16:44.332Z,61.47
2018-05-16T08:19:13.654Z,64.17
2018-05-16T08:21:43.160Z,62.80
2018-05-16T08:24:12.531Z,59.90
2018-05-16T08:26:42.937Z,57.47
2018-05-16T08:29:12.303Z,56.87
2018-05-16T08:31:41.737Z,59.03
2018-05-16T08:34:11.046Z,60.50
2018-05-16T08:36:41.395Z,60.10
2018-05-16T08:39:10.861Z,63.77
2018-05-16T08:41:40.282Z,65.00
2018-05-16T08:44:09.769Z,64.30
2018-05-16T08:46:39.184Z,65.20
2018-05-16T08:49:08.507Z,66.03
2018-05-16T08:51:38.729Z,61.10
2018-05-16T08:54:08.806Z,59.27
2018-05-16T08:56:38.196Z,64.00
2018-05-16T08:59:07.700Z,67.37
2018-05-16T09:01:37.008Z,69.17
2018-05-16T09:04:06.544Z,69.57
2018-05-16T09:06:35.929Z,71.20
2018-05-16T09:09:05.643Z,69.00
2018-05-16T09:11:35.158Z,73.83
2018-05-16T09:14:04.640Z,78.43
2018-05-16T09:16:34.003Z,76.17
2018-05-16T09:19:03.306Z,74.27
2018-05-16T09:21:32.766Z,69.23
2018-05-16T09:24:02.090Z,63.83
2018-05-16T09:26:31.531Z,58.40
2018-05-16T09:29:00.921Z,63.47
2018-05-16T09:31:30.337Z,64.07
2018-05-16T09:33:59.681Z,60.70
2018-05-16T09:36:29.093Z,61.63
2018-05-16T09:38:58.559Z,66.57
2018-05-16T09:41:27.993Z,68.73
2018-05-16T09:43:57.538Z,64.63
2018-05-16T09:46:27.143Z,66.93
2018-05-16T09:48:56.713Z,67.17
2018-05-16T09:51:26.639Z,64.50
2018-05-16T09:53:56.084Z,57.60
2018-05-16T09:56:25.381Z,58.67
2018-05-16T09:58:54.890Z,57.67
2018-05-16T10:01:24.232Z,56.67
2018-05-16T10:03:53.676Z,56.37
2018-05-16T10:06:23.221Z,56.13
2018-05-16T10:08:52.663Z,56.60
2018-05-16T10:11:22.041Z,56.60
2018-05-16T10:17:12.363Z,58.17
2018-05-16T10:19:42.010Z,56.90
2018-05-16T10:22:11.445Z,55.67
2018-05-16T10:24:40.922Z,58.47
2018-05-16T10:27:10.410Z,56.27
2018-05-16T10:29:40.138Z,60.33
2018-05-16T10:32:09.684Z,58.17
2018-05-16T10:34:39.261Z,61.73
2018-05-16T10:37:09.160Z,60.90
2018-05-16T10:39:40.367Z,62.30
2018-05-16T10:42:10.653Z,62.80
2018-05-16T10:44:40.858Z,60.07
2018-05-16T10:47:10.462Z,57.87
2018-05-16T10:49:39.945Z,56.97
2018-05-16T10:52:09.578Z,60.27
2018-05-16T10:54:40.055Z,63.03
2018-05-16T10:57:09.694Z,68.87
2018-05-16T10:59:39.517Z,65.30
2018-05-16T11:02:09.142Z,58.20
2018-05-16T11:04:38.583Z,56.17
2018-05-16T11:07:08.038Z,58.20
2018-05-16T11:09:37.605Z,55.70
2018-05-16T11:12:07.044Z,57.57
2018-05-16T11:14:36.510Z,57.43
2018-05-16T11:17:06.865Z,57.70
2018-05-16T11:19:36.611Z,59.97
2018-05-16T11:22:06.302Z,56.33
2018-05-16T11:24:35.911Z,54.07
2018-05-16T11:27:05.416Z,56.10
2018-05-16T11:29:34.867Z,55.57
2018-05-16T11:32:04.527Z,52.40
2018-05-16T11:34:34.086Z,52.00
2018-05-16T11:37:03.565Z,55.60
2018-05-16T11:39:34.239Z,55.87
2018-05-16T11:42:04.149Z,57.27
2018-05-16T11:44:34.773Z,53.67
2018-05-16T11:49:32.925Z,55.60
2018-05-16T11:52:03.715Z,57.47
2018-05-16T11:54:33.648Z,60.83
2018-05-16T11:57:03.641Z,61.87
2018-05-16T11:59:33.096Z,66.10
2018-05-16T12:02:04.353Z,64.77
2018-05-16T12:04:34.402Z,68.80
2018-05-16T12:07:04.934Z,70.53
2018-05-16T12:09:34.889Z,68.23
2018-05-16T12:12:04.874Z,89.70
2018-05-16T12:14:34.443Z,76.50
2018-05-16T12:17:03.899Z,81.67
2018-05-16T12:19:33.857Z,90.40
2018-05-16T12:22:04.471Z,74.80
2018-05-16T12:24:34.521Z,67.40
2018-05-16T12:27:04.567Z,60.27
2018-05-16T12:29:34.483Z,63.70
2018-05-16T12:32:04.647Z,62.40
2018-05-16T12:34:34.191Z,54.47
2018-05-16T12:37:03.700Z,56.33
2018-05-16T12:39:33.667Z,57.83
2018-05-16T12:42:03.553Z,59.53
2018-05-16T12:44:33.011Z,53.97
2018-05-16T12:47:03.230Z,37.30
2018-05-16T12:49:32.856Z,26.90
2018-05-16T12:52:02.484Z,29.07
2018-05-16T12:54:32.029Z,24.27
2018-05-16T12:57:01.572Z,24.83
2018-05-16T12:59:31.063Z,28.23
2018-05-16T13:02:01.897Z,31.00
2018-05-16T13:04:32.492Z,30.27
2018-05-16T13:07:02.035Z,29.93
2018-05-16T13:09:32.359Z,30.60
2018-05-16T13:12:01.984Z,30.07
2018-05-16T13:14:31.460Z,30.70
2018-05-16T13:17:01.425Z,33.47
2018-05-16T13:19:31.389Z,34.27
2018-05-16T13:22:01.307Z,31.83
2018-05-16T13:24:31.186Z,30.93
2018-05-16T13:27:00.693Z,31.30
2018-05-16T13:29:30.256Z,31.00
2018-05-16T13:31:59.714Z,31.43
2018-05-16T13:34:29.186Z,29.17
2018-05-16T13:36:58.761Z,29.13
2018-05-16T13:39:29.168Z,29.50
2018-05-16T13:41:58.776Z,29.90
2018-05-16T13:44:28.254Z,29.10
2018-05-16T13:46:57.766Z,28.07
2018-05-16T13:49:35.695Z,27.60
2018-05-16T13:52:08.085Z,28.47
2018-05-16T13:54:37.748Z,27.20
2018-05-16T13:57:07.215Z,28.93
2018-05-16T13:59:37.092Z,27.37
2018-05-16T14:05:08.392Z,25.20
2018-05-16T14:07:37.984Z,25.23
2018-05-16T14:10:09.258Z,27.30
2018-05-16T14:12:38.873Z,23.30
2018-05-16T14:15:09.093Z,22.60
2018-05-16T14:17:38.786Z,22.17
2018-05-16T14:20:08.416Z,21.30
2018-05-16T14:22:38.822Z,20.73
2018-05-16T14:25:08.421Z,19.50
2018-05-16T14:27:38.403Z,16.63
2018-05-16T14:30:11.784Z,18.10
2018-05-16T14:32:42.082Z,18.07
2018-05-16T14:35:11.589Z,17.50
2018-05-16T14:37:41.481Z,19.37
2018-05-16T14:40:11.367Z,19.27
2018-05-16T14:42:41.368Z,21.77
2018-05-16T14:45:14.367Z,19.37
2018-05-16T14:47:45.734Z,17.10
2018-05-16T14:50:15.218Z,15.03
2018-05-16T14:52:45.615Z,17.63
2018-05-16T14:55:16.451Z,17.70
2018-05-16T14:57:46.898Z,15.80
2018-05-16T15:00:16.665Z,15.80
2018-05-16T15:02:46.115Z,16.30
2018-05-16T15:05:15.725Z,14.70
2018-05-16T15:07:45.200Z,14.73
2018-05-16T15:10:14.743Z,14.80
2018-05-16T15:12:44.952Z,15.63
2018-05-16T15:15:14.422Z,14.98
2018-05-16T15:17:43.963Z,14.33
2018-05-16T15:20:13.411Z,16.83
2018-05-16T15:22:43.137Z,16.53
2018-05-16T15:25:14.065Z,15.20
2018-05-16T15:27:44.669Z,17.12
2018-05-16T15:30:14.144Z,15.43
2018-05-16T15:32:43.896Z,17.05
2018-05-16T15:35:14.304Z,17.45
2018-05-16T15:37:43.840Z,18.42
2018-05-16T15:40:14.103Z,19.85
2018-05-16T15:42:45.246Z,18.70
2018-05-16T15:45:15.732Z,20.48
2018-05-16T15:47:45.342Z,17.80
2018-05-16T15:50:14.917Z,19.52
2018-05-16T15:52:44.606Z,17.33
2018-05-16T15:55:15.659Z,20.35
2018-05-16T15:57:47.891Z,17.85
2018-05-16T16:00:17.614Z,18.02
2018-05-16T16:02:47.088Z,17.48
2018-05-16T16:05:16.854Z,19.42
2018-05-16T16:07:46.511Z,21.55
2018-05-16T16:10:15.980Z,18.02
2018-05-16T16:12:45.536Z,19.25
2018-05-16T16:15:15.235Z,16.67
2018-05-16T16:17:46.691Z,15.65
2018-05-16T16:20:16.338Z,16.25
2018-05-16T16:22:47.184Z,16.80
2018-05-16T16:25:16.723Z,15.03
2018-05-16T16:27:46.167Z,16.15
2018-05-16T16:30:15.822Z,14.03
2018-05-16T16:32:45.350Z,15.52
2018-05-16T16:35:14.794Z,16.10
2018-05-16T16:37:44.349Z,18.58
2018-05-16T16:40:13.861Z,16.08
2018-05-16T16:42:43.365Z,14.05
2018-05-16T16:45:12.919Z,11.30
2018-05-16T16:47:43.783Z,10.82
2018-05-16T16:52:47.418Z,11.93
2018-05-16T16:55:27.022Z,13.82
2018-05-16T16:57:57.909Z,13.18
2018-05-16T17:00:27.393Z,11.82
2018-05-16T17:02:56.865Z,10.48
2018-05-16T17:05:26.698Z,10.15
2018-05-16T17:07:56.427Z,9.45
2018-05-16T17:10:25.985Z,10.13
2018-05-16T17:12:55.712Z,10.77
2018-05-16T17:15:28.476Z,11.38
2018-05-16T17:17:58.727Z,13.18
2018-05-16T17:20:28.534Z,10.63
2018-05-16T17:22:58.116Z,9.80
2018-05-16T17:25:27.612Z,11.70
2018-05-16T17:27:58.243Z,12.77
2018-05-16T17:30:29.527Z,10.90
2018-05-16T17:32:59.044Z,8.18
2018-05-16T17:35:28.876Z,7.60
2018-05-16T17:37:58.467Z,8.50
2018-05-16T17:40:28.000Z,9.35
2018-05-16T17:42:58.286Z,10.68
2018-05-16T17:45:29.046Z,11.90
2018-05-16T17:47:58.783Z,15.07
2018-05-16T17:50:28.549Z,11.15
2018-05-16T17:52:58.865Z,10.95
2018-05-16T17:55:28.404Z,10.00
2018-05-16T18:01:19.249Z,10.40
2018-05-16T18:03:48.767Z,11.12
2018-05-16T18:06:19.885Z,9.13
2018-05-16T18:12:18.720Z,13.82
2018-05-16T18:17:50.237Z,9.70
2018-05-16T18:20:23.540Z,9.45
2018-05-16T18:22:53.386Z,9.05
2018-05-16T18:25:23.081Z,8.32
2018-05-16T18:27:55.323Z,10.40
2018-05-16T18:30:24.941Z,10.18
2018-05-16T18:33:00.525Z,9.57
2018-05-16T18:35:30.161Z,11.05
2018-05-16T18:38:01.028Z,10.45
2018-05-16T18:40:32.435Z,11.95
2018-05-16T18:43:02.710Z,11.18
2018-05-16T18:48:10.768Z,10.02
2018-05-16T18:50:45.217Z,11.82
2018-05-16T18:55:51.655Z,11.98
2018-05-16T18:58:22.593Z,11.20
2018-05-16T19:00:57.286Z,11.70
2018-05-16T19:03:27.801Z,10.38
2018-05-16T19:05:58.363Z,10.90
2018-05-16T19:08:29.114Z,13.23
2018-05-16T19:10:59.289Z,11.05
2018-05-16T19:13:29.082Z,10.73
2018-05-16T19:16:01.379Z,10.02
2018-05-16T19:18:32.981Z,11.88
2018-05-16T19:21:03.855Z,11.32
2018-05-16T19:23:35.762Z,10.48
2018-05-16T19:29:26.936Z,11.65
2018-05-16T19:31:56.336Z,12.68
2018-05-16T19:34:25.558Z,10.10
2018-05-16T19:36:55.854Z,21.02
2018-05-16T19:39:26.206Z,10.50
2018-05-16T19:41:55.421Z,13.90
2018-05-16T19:44:25.553Z,11.25
2018-05-16T19:46:54.772Z,9.45
2018-05-16T19:49:27.988Z,9.75
2018-05-16T19:51:57.330Z,10.23
2018-05-16T19:54:26.604Z,9.25
2018-05-16T19:56:56.390Z,9.38
2018-05-16T19:59:30.434Z,9.48
2018-05-16T20:02:08.734Z,8.88
2018-05-16T20:08:02.925Z,9.43
2018-05-16T20:10:36.285Z,12.40
2018-05-16T20:13:08.124Z,9.13
2018-05-16T20:18:37.335Z,8.38
2018-05-16T20:21:26.509Z,8.57
2018-05-16T20:24:07.717Z,9.30
2018-05-16T20:26:45.495Z,9.77
2018-05-16T20:32:06.059Z,18.10
2018-05-16T20:34:55.266Z,23.25
2018-05-16T20:37:34.243Z,20.42
2018-05-16T20:43:13.650Z,21.87
2018-05-16T20:45:44.951Z,13.60
2018-05-16T20:48:18.087Z,10.35
2018-05-16T20:56:29.988Z,8.63
2018-05-16T21:04:39.147Z,9.83
2018-05-16T21:07:11.088Z,11.87
2018-05-16T21:09:46.228Z,12.30
2018-05-16T21:15:45.869Z,16.87
2018-05-16T21:18:16.877Z,18.13
2018-05-16T21:20:47.389Z,18.53
2018-05-16T21:23:16.704Z,19.13
2018-05-16T21:25:46.030Z,17.97
2018-05-16T21:28:15.460Z,16.60
2018-05-16T21:30:46.156Z,15.60
2018-05-16T21:33:15.571Z,17.60
2018-05-16T21:35:45.261Z,15.10
2018-05-16T21:38:14.569Z,16.90
2018-05-16T21:40:43.997Z,22.70
2018-05-16T21:43:14.101Z,26.00
2018-05-16T21:45:43.481Z,24.53
2018-05-16T21:48:12.890Z,32.10
2018-05-16T21:50:42.389Z,31.53
2018-05-16T21:53:11.744Z,21.67
2018-05-16T21:55:41.869Z,25.67
2018-05-16T21:58:11.980Z,36.27
2018-05-16T22:03:24.865Z,30.07
2018-05-16T22:05:54.203Z,28.37
2018-05-16T22:08:23.935Z,31.83
2018-05-16T22:10:53.407Z,37.17
2018-05-16T22:13:22.744Z,35.33
2018-05-16T22:15:52.070Z,37.47
2018-05-16T22:18:21.689Z,31.67
2018-05-16T22:20:51.052Z,35.43
2018-05-16T22:23:20.393Z,36.47
2018-05-16T22:25:49.829Z,39.87
2018-05-16T22:28:19.301Z,40.70
2018-05-16T22:30:57.017Z,42.53
2018-05-16T22:33:31.699Z,42.73
2018-05-16T22:36:08.127Z,41.43
2018-05-16T22:38:42.970Z,43.53
2018-05-16T22:41:19.236Z,48.83
2018-05-16T22:43:52.863Z,42.87
2018-05-16T22:46:22.237Z,45.50
2018-05-16T22:48:51.551Z,38.63
2018-05-16T22:51:20.847Z,39.53
2018-05-16T22:53:50.263Z,37.97
2018-05-16T22:56:19.893Z,38.37
2018-05-16T22:58:49.291Z,39.57
2018-05-16T23:01:18.655Z,38.30
2018-05-16T23:03:49.422Z,38.60
2018-05-16T23:06:19.031Z,39.03
2018-05-16T23:08:49.703Z,40.03
2018-05-16T23:11:20.085Z,41.07
2018-05-16T23:13:49.626Z,41.40
2018-05-16T23:16:18.997Z,40.07
2018-05-16T23:22:17.789Z,41.50
2018-05-16T23:24:48.481Z,34.03
2018-05-16T23:27:19.767Z,9.10
2018-05-16T23:29:50.573Z,15.50
2018-05-16T23:32:27.474Z,18.20
2018-05-16T23:35:00.030Z,13.53
2018-05-16T23:37:33.774Z,14.30
2018-05-16T23:47:54.956Z,13.70
2018-05-16T23:53:06.478Z,17.37
2018-05-16T23:55:41.082Z,20.27
2018-05-16T23:58:20.274Z,19.97
